createdAt,value
2023-10-25T00:09:34.735Z,9.1
2023-10-25T00:24:34.740Z,9.1
2023-10-25T00:39:34.772Z,9.2
2023-10-25T00:54:34.742Z,9.2
2023-10-25T01:09:34.848Z,9.1
2023-10-25T01:24:34.742Z,9
2023-10-25T01:39:34.716Z,8.9
2023-10-25T01:54:34.732Z,8.8
2023-10-25T02:09:34.718Z,8.8
2023-10-25T02:24:34.732Z,8.8
2023-10-25T02:39:34.712Z,8.7
2023-10-25T02:54:34.702Z,8.8
2023-10-25T03:09:34.712Z,8.6
2023-10-25T03:24:34.724Z,8.5
2023-10-25T03:39:34.727Z,8.6
2023-10-25T03:54:34.710Z,8.6
2023-10-25T04:09:34.689Z,8.4
2023-10-25T04:24:34.732Z,8.3
2023-10-25T04:39:34.750Z,8.3
2023-10-25T04:54:34.687Z,8.3
2023-10-25T05:09:34.725Z,8.2
2023-10-25T05:24:34.655Z,8.3
2023-10-25T05:39:34.679Z,8.6
2023-10-25T05:54:34.651Z,8.8
2023-10-25T06:09:34.713Z,8.9
2023-10-25T06:24:34.679Z,8.9
2023-10-25T06:39:34.683Z,9
2023-10-25T06:54:34.721Z,9.1
2023-10-25T07:09:34.693Z,9.4
2023-10-25T07:24:34.698Z,9.6
2023-10-25T07:39:34.729Z,9.8
2023-10-25T07:54:34.675Z,9.7
2023-10-25T08:09:34.722Z,9.8
2023-10-25T08:24:34.705Z,9.9
2023-10-25T08:39:34.692Z,10.2
2023-10-25T08:54:34.729Z,10.6
2023-10-25T09:09:34.662Z,10.4
2023-10-25T09:24:34.668Z,10.4
2023-10-25T09:39:34.682Z,10.2
2023-10-25T09:54:34.984Z,10.2
2023-10-25T10:09:34.736Z,10.4
2023-10-25T10:24:34.709Z,10.3
2023-10-25T10:39:34.729Z,10.2
2023-10-25T10:54:34.717Z,10.2
2023-10-25T11:09:34.734Z,10.2
2023-10-25T11:24:34.686Z,10.1
2023-10-25T11:39:34.719Z,10.1
2023-10-25T11:54:34.712Z,10.2
2023-10-25T12:09:34.704Z,10.2
2023-10-25T12:24:34.712Z,10.3
2023-10-25T12:39:34.735Z,10.4
2023-10-25T12:54:34.706Z,10.4
2023-10-25T13:09:34.725Z,10.6
2023-10-25T13:24:34.733Z,10.6
2023-10-25T13:39:34.725Z,10.6
2023-10-25T13:54:34.872Z,10.6
2023-10-25T14:09:35.337Z,10.8
2023-10-25T14:24:37.974Z,10.9
2023-10-25T14:39:34.714Z,10.9
2023-10-25T14:54:34.690Z,11.1
2023-10-25T15:09:34.675Z,11.2
2023-10-25T15:24:34.701Z,11.1
2023-10-25T15:39:34.693Z,11.1
2023-10-25T15:54:34.692Z,11.3
2023-10-25T16:09:34.694Z,11.4
2023-10-25T16:24:34.740Z,11.4
2023-10-25T16:39:34.743Z,11.2
2023-10-25T16:54:34.725Z,11.1
2023-10-25T17:09:34.764Z,10.9
2023-10-25T17:24:34.706Z,10.6
2023-10-25T17:39:34.698Z,10.6
2023-10-25T17:54:34.735Z,10.4
2023-10-25T18:09:34.677Z,10.2
2023-10-25T18:24:34.765Z,10.1
2023-10-25T18:39:34.717Z,10
2023-10-25T18:54:34.705Z,10
2023-10-25T19:09:34.736Z,9.9
2023-10-25T19:24:34.696Z,9.8
2023-10-25T19:39:34.726Z,9.8
2023-10-25T19:54:34.717Z,9.8
2023-10-25T20:09:34.717Z,9.8
2023-10-25T20:24:34.706Z,9.8
2023-10-25T20:39:34.718Z,9.7
2023-10-25T20:54:34.716Z,9.7
2023-10-25T21:09:34.808Z,9.6
2023-10-25T21:24:34.692Z,9.6
2023-10-25T21:39:34.693Z,9.6
2023-10-25T21:54:34.693Z,9.6
2023-10-25T22:09:34.746Z,9.5
2023-10-25T22:24:34.782Z,9.4
2023-10-25T22:39:34.731Z,9.4
2023-10-25T22:54:34.690Z,9.4
2023-10-25T23:09:34.710Z,9.3
2023-10-25T23:24:34.687Z,9.3
2023-10-25T23:39:34.710Z,9.3
2023-10-25T23:54:43.325Z,9.3
